Ellsworth, Michigan
Current Conditions -  °F | °C
As of 4:15 AM on Sunday 26 Oct 2014 (Local Time) from KCVX Reporting Station
Clear Clear  
Wind Chill: 50°   Ceiling: Unl
Heat Index: 50°   Visibility: 10mi
Dew Point: 36°   Wind: 15mph
Humidity: 58%   Direction: 320°NW
Pressure: 29.87"   Gusts: 28mph
Location:  45.17°N, 85.25°W
Report Text: KCVX 260815Z AUTO 32013G24KT 10SM CLR 10/02 A2987 RMK AO2 T01000021
Loading
Personal Weather Stations






























Interactive Weather Map
Tropical Storm Tracking
New forecast layout! Learn more

10-Day Weather Forecast

Advertisements
Track Severe Weather on mobile